This is the latest recevied weather packets stored in our database for station/object K4FB. If no packets are shown the sender has not sent any weather packets the latest 10 day(s).
| Time | Temp. | Humidity | Pressure | Rain* | Wind** | Luminosity | Snow |
|---|---|---|---|---|---|---|---|
| 1777572027 | 33.33° C | 43% | 1012.3 hPa | 0 mm | - | - | - |
| 1777571712 | 33.33° C | 44% | 1012.5 hPa | 0 mm | - | - | - |
| 1777571123 | 32.78° C | 43% | 1012.5 hPa | 0 mm | - | - | - |
| 1777569906 | 32.78° C | 50% | 1012.9 hPa | 0 mm | - | - | - |
| 1777567537 | 30.56° C | 53% | 1013 hPa | 0 mm | - | - | - |
| 1777566908 | 30° C | 56% | 1013 hPa | 0 mm | - | - | - |
| 1777565727 | 30.56° C | 53% | 1013.5 hPa | 0 mm | - | - | - |
| 1777565407 | 30.56° C | 51% | 1013.7 hPa | 0 mm | - | - | - |
| 1777563312 | 28.89° C | 60% | 1013.7 hPa | 0 mm | - | - | - |
| 1777562708 | 28.89° C | 67% | 1013.8 hPa | 0 mm | - | - | - |
| 1777560911 | 27.22° C | 74% | 1013.6 hPa | 0 mm | - | - | - |
| 1777557914 | 25° C | 83% | 1013.6 hPa | 0 mm | - | - | - |
| 1777553408 | 22.22° C | 95% | 1014.4 hPa | 0 mm | - | - | - |
| 1777553120 | 22.22° C | 95% | 1014.4 hPa | 0 mm | - | - | - |
| 1777551604 | 22.22° C | 96% | 1013.8 hPa | 0 mm | - | - | - |
| 1777549505 | 20.56° C | 95% | 1013.5 hPa | 0 mm | - | - | - |
| 1777548303 | 20.56° C | 95% | 1013.6 hPa | 0 mm | - | - | - |
| 1777546504 | 20° C | 96% | 1012.9 hPa | 0 mm | - | - | - |
| 1777540204 | 20.56° C | 94% | 1012.4 hPa | 0 mm | - | - | - |
| 1777539907 | 20.56° C | 94% | 1012.4 hPa | 0 mm | - | - | - |
| 1777539004 | 20.56° C | 94% | 1012.6 hPa | 0 mm | - | - | - |
| 1777538403 | 20.56° C | 94% | 1012.9 hPa | 0 mm | - | - | - |
| 1777536914 | 20.56° C | 94% | 1012.7 hPa | 0 mm | - | - | - |
| 1777533912 | 20.56° C | 92% | 1013.1 hPa | 0 mm | - | - | - |
| 1777530903 | 20.56° C | 91% | 1013.3 hPa | 0 mm | - | - | - |
* Rain latest hour (hover to see other rain measurements)
** Current wind speed in m/s (hover to see current wind gust speed)